createdAt,value
2023-01-12T00:00:25.554Z,124
2023-01-12T00:01:32.656Z,134
2023-01-12T00:02:43.037Z,125
2023-01-12T00:03:49.995Z,124
2023-01-12T00:04:57.032Z,125
2023-01-12T00:06:04.176Z,121
2023-01-12T00:07:11.298Z,126
2023-01-12T00:08:18.426Z,117
2023-01-12T00:09:25.672Z,118
2023-01-12T00:10:32.776Z,117
2023-01-12T00:11:39.806Z,112
2023-01-12T00:12:46.985Z,114
2023-01-12T00:13:54.089Z,116
2023-01-12T00:15:00.801Z,122
2023-01-12T00:16:07.949Z,116
2023-01-12T00:17:20.058Z,117
2023-01-12T00:18:27.141Z,122
2023-01-12T00:19:34.250Z,125
2023-01-12T00:20:41.366Z,118
2023-01-12T00:21:51.073Z,114
2023-01-12T00:23:00.724Z,108
2023-01-12T00:24:07.914Z,117
2023-01-12T00:25:14.967Z,112
2023-01-12T00:26:22.138Z,120
2023-01-12T00:27:28.728Z,115
2023-01-12T00:28:35.833Z,113
2023-01-12T00:29:42.960Z,114
2023-01-12T00:30:50.142Z,114
2023-01-12T00:31:56.820Z,118
2023-01-12T00:33:03.912Z,120
2023-01-12T00:34:10.989Z,120
2023-01-12T00:35:18.113Z,112
2023-01-12T00:36:25.196Z,126
2023-01-12T00:37:31.852Z,113
2023-01-12T00:38:39.029Z,111
2023-01-12T00:40:00.680Z,114
2023-01-12T00:40:53.302Z,115
2023-01-12T00:42:00.374Z,120
2023-01-12T00:43:12.600Z,117
2023-01-12T00:44:24.834Z,115
2023-01-12T00:45:37.117Z,118
2023-01-12T00:46:44.154Z,122
2023-01-12T00:47:51.292Z,109
2023-01-12T00:48:57.917Z,116
2023-01-12T00:50:04.603Z,121
2023-01-12T00:51:11.780Z,123
2023-01-12T00:52:29.759Z,115
2023-01-12T00:53:25.897Z,125
2023-01-12T00:54:32.590Z,117
2023-01-12T00:55:39.677Z,112
2023-01-12T00:56:46.798Z,114
2023-01-12T00:57:54.180Z,112
2023-01-12T00:59:01.271Z,114
2023-01-12T01:00:08.163Z,123
2023-01-12T01:01:15.504Z,119
2023-01-12T01:02:22.431Z,120
2023-01-12T01:03:29.513Z,123
2023-01-12T01:04:36.741Z,121
2023-01-12T01:05:43.772Z,115
2023-01-12T01:06:50.886Z,114
2023-01-12T01:07:58.017Z,123
2023-01-12T01:09:05.146Z,118
2023-01-12T01:10:12.533Z,120
2023-01-12T01:11:19.388Z,118
2023-01-12T01:12:26.479Z,122
2023-01-12T01:13:33.677Z,122
2023-01-12T01:14:40.680Z,121
2023-01-12T01:15:47.885Z,118
2023-01-12T01:16:54.622Z,122
2023-01-12T01:18:01.681Z,114
2023-01-12T01:19:08.750Z,115
2023-01-12T01:20:15.871Z,121
2023-01-12T01:21:22.945Z,118
2023-01-12T01:22:29.632Z,119
2023-01-12T01:23:37.048Z,116
2023-01-12T01:24:43.849Z,118
2023-01-12T01:25:50.986Z,116
2023-01-12T01:26:57.737Z,115
2023-01-12T01:28:04.869Z,112
2023-01-12T01:29:12.033Z,122
2023-01-12T01:30:18.999Z,116
2023-01-12T01:31:26.265Z,122
2023-01-12T01:32:33.356Z,112
2023-01-12T01:33:40.422Z,109
2023-01-12T01:34:47.540Z,111
2023-01-12T01:35:54.332Z,112
2023-01-12T01:37:01.399Z,115
2023-01-12T01:38:08.447Z,116
2023-01-12T01:39:15.633Z,107
2023-01-12T01:40:22.680Z,112
2023-01-12T01:41:29.313Z,108
2023-01-12T01:42:36.488Z,115
2023-01-12T01:43:43.623Z,115
2023-01-12T01:44:53.824Z,119
2023-01-12T01:46:01.043Z,119
2023-01-12T01:47:08.035Z,111
2023-01-12T01:48:15.141Z,116
2023-01-12T01:49:22.280Z,118
2023-01-12T01:50:34.514Z,126
2023-01-12T01:51:41.263Z,114
2023-01-12T01:52:48.441Z,120
2023-01-12T01:54:01.633Z,114
2023-01-12T01:55:08.768Z,116
2023-01-12T01:56:21.885Z,110
2023-01-12T01:57:29.003Z,106
2023-01-12T01:58:38.715Z,118
2023-01-12T01:59:48.500Z,115
2023-01-12T02:00:55.542Z,112
2023-01-12T02:02:02.793Z,118
2023-01-12T02:03:09.336Z,115
2023-01-12T02:04:16.385Z,108
2023-01-12T02:05:23.558Z,117
2023-01-12T02:06:30.754Z,119
2023-01-12T02:07:37.729Z,111
2023-01-12T02:08:44.358Z,114
2023-01-12T02:09:51.124Z,113
2023-01-12T02:10:58.103Z,115
2023-01-12T02:12:05.315Z,105
2023-01-12T02:13:17.604Z,114
2023-01-12T02:14:29.635Z,113
2023-01-12T02:15:41.517Z,127
2023-01-12T02:16:56.183Z,113
2023-01-12T02:18:08.451Z,116
2023-01-12T02:19:20.577Z,103
2023-01-12T02:20:27.726Z,119
2023-01-12T02:21:45.070Z,127
2023-01-12T02:22:59.840Z,119
2023-01-12T02:24:14.633Z,113
2023-01-12T02:25:31.988Z,119
2023-01-12T02:26:41.445Z,119
2023-01-12T02:27:56.199Z,114
2023-01-12T02:29:08.509Z,117
2023-01-12T02:30:20.623Z,117
2023-01-12T02:31:33.007Z,118
2023-01-12T02:32:50.097Z,116
2023-01-12T02:34:02.433Z,117
2023-01-12T02:35:19.606Z,111
2023-01-12T02:36:31.836Z,111
2023-01-12T02:37:48.887Z,108
2023-01-12T02:39:03.930Z,110
2023-01-12T02:40:18.679Z,114
2023-01-12T02:41:33.498Z,110
2023-01-12T02:42:50.767Z,109
2023-01-12T02:44:03.080Z,112
2023-01-12T02:45:10.096Z,112
2023-01-12T02:46:22.348Z,112
2023-01-12T02:47:29.502Z,124
2023-01-12T02:48:42.041Z,120
2023-01-12T02:49:59.587Z,119
2023-01-12T02:51:06.544Z,119
2023-01-12T02:52:18.766Z,113
2023-01-12T02:53:25.849Z,113
2023-01-12T02:54:38.110Z,116
2023-01-12T02:55:44.699Z,114
2023-01-12T02:56:51.402Z,117
2023-01-12T02:57:58.519Z,114
2023-01-12T02:59:05.670Z,120
2023-01-12T03:00:12.749Z,114
2023-01-12T03:01:20.400Z,113
2023-01-12T03:02:27.364Z,125
2023-01-12T03:03:34.019Z,103
2023-01-12T03:04:41.253Z,110
2023-01-12T03:05:48.309Z,113
2023-01-12T03:06:54.906Z,106
2023-01-12T03:08:01.700Z,121
2023-01-12T03:09:08.821Z,124
2023-01-12T03:10:15.925Z,111
2023-01-12T03:11:33.069Z,104
2023-01-12T03:12:40.159Z,109
2023-01-12T03:13:47.220Z,111
2023-01-12T03:14:54.031Z,105
2023-01-12T03:16:01.108Z,102
2023-01-12T03:17:08.070Z,107
2023-01-12T03:18:15.303Z,110
2023-01-12T03:19:22.431Z,106
2023-01-12T03:20:29.362Z,114
2023-01-12T03:21:38.974Z,99
2023-01-12T03:22:45.868Z,102
2023-01-12T03:23:52.960Z,106
2023-01-12T03:25:02.732Z,116
2023-01-12T03:26:09.786Z,111
2023-01-12T03:27:16.979Z,113
2023-01-12T03:28:24.003Z,121
2023-01-12T03:29:31.316Z,104
2023-01-12T03:30:38.304Z,110
2023-01-12T03:31:45.515Z,109
2023-01-12T03:32:52.581Z,105
2023-01-12T03:33:59.668Z,114
2023-01-12T03:35:06.761Z,119
2023-01-12T03:36:13.717Z,117
2023-01-12T03:37:25.579Z,115
2023-01-12T03:38:35.272Z,112
2023-01-12T03:39:42.700Z,110
2023-01-12T03:40:57.656Z,103
2023-01-12T03:42:07.363Z,108
2023-01-12T03:43:17.027Z,110
2023-01-12T03:44:34.288Z,108
2023-01-12T03:45:48.991Z,102
2023-01-12T03:46:58.785Z,112
2023-01-12T03:48:05.843Z,106
2023-01-12T03:49:18.119Z,108
2023-01-12T03:50:30.272Z,103
2023-01-12T03:51:42.522Z,107
2023-01-12T03:52:49.587Z,103
2023-01-12T03:53:56.808Z,108
2023-01-12T03:55:03.850Z,106
2023-01-12T03:56:11.173Z,105
2023-01-12T03:57:18.332Z,98
2023-01-12T03:58:25.225Z,98
2023-01-12T03:59:32.299Z,96
2023-01-12T04:00:39.119Z,107
2023-01-12T04:01:46.313Z,111
2023-01-12T04:02:53.324Z,102
2023-01-12T04:04:05.607Z,107
2023-01-12T04:05:12.742Z,107
2023-01-12T04:06:19.682Z,105
2023-01-12T04:07:26.798Z,103
2023-01-12T04:08:33.424Z,105
2023-01-12T04:09:40.605Z,103
2023-01-12T04:10:47.929Z,104
2023-01-12T04:11:54.878Z,106
2023-01-12T04:13:07.175Z,106
2023-01-12T04:14:14.374Z,109
2023-01-12T04:15:21.327Z,101
2023-01-12T04:16:28.528Z,104
2023-01-12T04:17:35.496Z,99
2023-01-12T04:18:42.296Z,103
2023-01-12T04:19:49.371Z,99
2023-01-12T04:20:56.389Z,100
2023-01-12T04:22:03.553Z,94
2023-01-12T04:23:13.253Z,98
2023-01-12T04:24:20.355Z,106
2023-01-12T04:25:27.463Z,106
2023-01-12T04:26:34.705Z,104
2023-01-12T04:27:41.729Z,111
2023-01-12T04:28:54.127Z,99
2023-01-12T04:30:01.053Z,105
2023-01-12T04:31:08.119Z,105
2023-01-12T04:32:15.248Z,107
2023-01-12T04:33:22.349Z,105
2023-01-12T04:34:29.464Z,104
2023-01-12T04:35:36.768Z,111
2023-01-12T04:36:43.732Z,104
2023-01-12T04:37:50.933Z,99
2023-01-12T04:38:57.471Z,102
2023-01-12T04:40:04.558Z,107
2023-01-12T04:41:13.225Z,112
2023-01-12T04:42:20.375Z,110
2023-01-12T04:43:32.499Z,101
2023-01-12T04:44:39.259Z,112
2023-01-12T04:45:46.331Z,103
2023-01-12T04:46:53.459Z,109
2023-01-12T04:48:00.521Z,109
2023-01-12T04:49:10.223Z,106
2023-01-12T04:50:16.925Z,109
2023-01-12T04:51:24.190Z,117
2023-01-12T04:52:31.177Z,114
2023-01-12T04:53:38.326Z,120
2023-01-12T04:54:44.871Z,116
2023-01-12T04:55:51.971Z,117
2023-01-12T04:56:59.155Z,115
2023-01-12T04:58:06.341Z,117
2023-01-12T04:59:13.375Z,112
2023-01-12T05:00:20.438Z,112
2023-01-12T05:01:27.630Z,109
2023-01-12T05:02:34.195Z,117
2023-01-12T05:03:41.398Z,115
2023-01-12T05:04:48.490Z,117
2023-01-12T05:05:55.625Z,111
2023-01-12T05:07:02.731Z,114
2023-01-12T05:08:09.939Z,116
2023-01-12T05:09:22.069Z,116
2023-01-12T05:10:34.282Z,113
2023-01-12T05:11:40.960Z,120
2023-01-12T05:12:48.102Z,116
2023-01-12T05:13:55.216Z,116
2023-01-12T05:15:02.329Z,119
2023-01-12T05:16:10.105Z,109
2023-01-12T05:17:19.581Z,103
2023-01-12T05:18:26.742Z,115
2023-01-12T05:19:33.871Z,118
2023-01-12T05:20:40.978Z,118
2023-01-12T05:21:47.598Z,117
2023-01-12T05:22:54.327Z,117
2023-01-12T05:24:01.371Z,119
2023-01-12T05:25:08.633Z,120
2023-01-12T05:26:15.584Z,115
2023-01-12T05:27:22.720Z,116
2023-01-12T05:28:29.283Z,123
2023-01-12T05:29:36.506Z,120
2023-01-12T05:30:43.526Z,115
2023-01-12T05:31:50.726Z,116
2023-01-12T05:32:57.371Z,115
2023-01-12T05:34:04.580Z,112
2023-01-12T05:35:11.719Z,116
2023-01-12T05:36:18.837Z,116
2023-01-12T05:37:25.865Z,115
2023-01-12T05:38:33.023Z,119
2023-01-12T05:39:40.402Z,111
2023-01-12T05:40:47.434Z,116
2023-01-12T05:41:54.535Z,119
2023-01-12T05:43:06.647Z,121
2023-01-12T05:44:18.902Z,115
2023-01-12T05:45:25.983Z,117
2023-01-12T05:46:33.095Z,119
2023-01-12T05:47:40.156Z,114
2023-01-12T05:48:46.903Z,111
2023-01-12T05:49:54.019Z,104
2023-01-12T05:51:01.035Z,119
2023-01-12T05:52:08.284Z,112
2023-01-12T05:53:15.490Z,113
2023-01-12T05:54:22.461Z,110
2023-01-12T05:55:29.555Z,110
2023-01-12T05:56:36.706Z,102
2023-01-12T05:57:43.911Z,116
2023-01-12T05:58:51.056Z,105
2023-01-12T06:00:01.192Z,117
2023-01-12T06:01:08.487Z,115
2023-01-12T06:02:15.333Z,112
2023-01-12T06:03:22.463Z,108
2023-01-12T06:04:29.689Z,118
2023-01-12T06:05:36.703Z,114
2023-01-12T06:06:43.457Z,118
2023-01-12T06:07:50.539Z,116
2023-01-12T06:08:57.650Z,118
2023-01-12T06:10:04.733Z,113
2023-01-12T06:11:11.869Z,115
2023-01-12T06:12:24.040Z,116
2023-01-12T06:13:35.757Z,121
2023-01-12T06:14:47.982Z,117
2023-01-12T06:15:55.223Z,118
2023-01-12T06:17:07.559Z,109
2023-01-12T06:18:14.546Z,108
2023-01-12T06:19:21.671Z,113
2023-01-12T06:20:28.753Z,107
2023-01-12T06:21:35.934Z,107
2023-01-12T06:22:42.654Z,113
2023-01-12T06:23:50.976Z,115
2023-01-12T06:25:05.104Z,107
2023-01-12T06:26:17.020Z,109
2023-01-12T06:27:23.758Z,119
2023-01-12T06:28:31.058Z,112
2023-01-12T06:29:40.671Z,111
2023-01-12T06:30:47.833Z,107
2023-01-12T06:32:00.111Z,109
2023-01-12T06:33:07.156Z,107
2023-01-12T06:34:14.144Z,112
2023-01-12T06:35:21.171Z,109
2023-01-12T06:36:28.476Z,107
2023-01-12T06:37:35.047Z,118
2023-01-12T06:38:42.156Z,114
2023-01-12T06:39:49.227Z,119
2023-01-12T06:40:56.343Z,113
2023-01-12T06:42:06.207Z,115
2023-01-12T06:43:18.354Z,114
2023-01-12T06:44:25.343Z,116
2023-01-12T06:45:32.604Z,116
2023-01-12T06:46:39.786Z,111
2023-01-12T06:47:46.369Z,118
2023-01-12T06:48:53.487Z,119
2023-01-12T06:50:00.665Z,117
2023-01-12T06:51:07.727Z,107
2023-01-12T06:52:14.358Z,117
2023-01-12T06:53:21.627Z,113
2023-01-12T06:54:28.499Z,117
2023-01-12T06:55:35.631Z,104
2023-01-12T06:56:42.708Z,112
2023-01-12T06:57:49.450Z,113
2023-01-12T06:58:56.571Z,110
2023-01-12T07:00:03.890Z,111
2023-01-12T07:01:11.570Z,112
2023-01-12T07:02:18.604Z,107
2023-01-12T07:03:25.451Z,109
2023-01-12T07:04:32.189Z,102
2023-01-12T07:05:39.334Z,107
2023-01-12T07:06:46.390Z,104
2023-01-12T07:07:53.032Z,106
2023-01-12T07:09:02.632Z,109
2023-01-12T07:10:09.813Z,105
2023-01-12T07:11:17.002Z,101
2023-01-12T07:12:24.023Z,102
2023-01-12T07:13:31.204Z,101
2023-01-12T07:14:38.356Z,96
2023-01-12T07:15:45.420Z,101
2023-01-12T07:16:52.016Z,103
2023-01-12T07:17:59.142Z,97
2023-01-12T07:19:06.390Z,100
2023-01-12T07:20:13.492Z,97
2023-01-12T07:21:20.451Z,99
2023-01-12T07:22:27.136Z,93
2023-01-12T07:23:34.231Z,95
2023-01-12T07:24:41.056Z,102
2023-01-12T07:25:48.182Z,96
2023-01-12T07:26:55.209Z,96
2023-01-12T07:28:01.895Z,96
2023-01-12T07:29:08.960Z,93
2023-01-12T07:30:15.722Z,98
2023-01-12T07:31:22.752Z,95
2023-01-12T07:32:29.790Z,95
2023-01-12T07:33:36.896Z,92
2023-01-12T07:34:43.539Z,94
2023-01-12T07:35:50.640Z,94
2023-01-12T07:36:57.956Z,97
2023-01-12T07:38:04.631Z,91
2023-01-12T07:39:11.675Z,87
2023-01-12T07:40:18.891Z,95
2023-01-12T07:41:25.815Z,93
2023-01-12T07:42:38.111Z,101
2023-01-12T07:43:45.293Z,103
2023-01-12T07:44:52.397Z,86
2023-01-12T07:45:59.598Z,98
2023-01-12T07:47:06.773Z,100
2023-01-12T07:48:13.806Z,96
2023-01-12T07:49:20.743Z,94
2023-01-12T07:50:27.899Z,95
2023-01-12T07:51:34.667Z,95
2023-01-12T07:52:41.956Z,97
2023-01-12T07:53:48.924Z,97
2023-01-12T07:54:56.072Z,85
2023-01-12T07:56:03.209Z,92
2023-01-12T07:57:10.324Z,93
2023-01-12T07:58:17.131Z,89
2023-01-12T07:59:24.093Z,93
2023-01-12T08:00:31.089Z,91
2023-01-12T08:01:38.408Z,98
2023-01-12T08:02:45.471Z,101
2023-01-12T08:03:52.511Z,95
2023-01-12T08:04:59.289Z,94
2023-01-12T08:06:06.379Z,96
2023-01-12T08:07:13.396Z,101
2023-01-12T08:08:20.123Z,97
2023-01-12T08:09:27.106Z,94
2023-01-12T08:10:33.894Z,100
2023-01-12T08:11:40.940Z,90
2023-01-12T08:12:47.962Z,90
2023-01-12T08:13:55.141Z,95
2023-01-12T08:15:01.864Z,92
2023-01-12T08:16:08.948Z,96
2023-01-12T08:17:15.768Z,85
2023-01-12T08:18:22.599Z,87
2023-01-12T08:19:29.750Z,90
2023-01-12T08:20:36.444Z,83
2023-01-12T08:21:43.675Z,88
2023-01-12T08:22:50.668Z,94
2023-01-12T08:23:57.302Z,90
2023-01-12T08:25:04.567Z,91
2023-01-12T08:26:14.652Z,83
2023-01-12T08:27:24.202Z,83
2023-01-12T08:28:31.438Z,89
2023-01-12T08:29:38.106Z,79
2023-01-12T08:30:47.743Z,82
2023-01-12T08:31:54.949Z,70
2023-01-12T08:33:05.039Z,75
2023-01-12T08:34:12.355Z,77
2023-01-12T08:35:19.424Z,74
2023-01-12T08:36:26.377Z,71
2023-01-12T08:37:33.598Z,69
2023-01-12T08:38:40.730Z,67
2023-01-12T08:39:47.875Z,67
2023-01-12T08:40:55.224Z,65
2023-01-12T08:42:07.291Z,68
2023-01-12T08:43:14.157Z,69
2023-01-12T08:44:24.149Z,60
2023-01-12T08:45:31.319Z,64
2023-01-12T08:46:38.365Z,58
2023-01-12T08:47:51.482Z,55
2023-01-12T08:48:58.270Z,54
2023-01-12T08:50:05.316Z,54
2023-01-12T08:51:12.387Z,59
2023-01-12T08:52:19.518Z,53
2023-01-12T08:53:26.810Z,45
2023-01-12T08:54:33.938Z,46
2023-01-12T08:55:40.954Z,46
2023-01-12T08:56:48.182Z,44
2023-01-12T08:57:55.216Z,44
2023-01-12T08:59:02.282Z,49
2023-01-12T09:00:09.532Z,36
2023-01-12T09:01:16.920Z,50
2023-01-12T09:02:23.822Z,53
2023-01-12T09:03:30.882Z,51
2023-01-12T09:04:37.936Z,48
2023-01-12T09:05:44.724Z,38
2023-01-12T09:06:51.893Z,38
2023-01-12T09:07:58.999Z,31
2023-01-12T09:09:05.949Z,25
2023-01-12T09:10:12.783Z,37
2023-01-12T09:11:20.026Z,37
2023-01-12T09:12:26.767Z,31
2023-01-12T09:13:34.071Z,32
2023-01-12T09:14:41.159Z,25
2023-01-12T09:15:56.640Z,29
2023-01-12T09:16:55.504Z,25
2023-01-12T09:18:02.647Z,26
2023-01-12T09:19:09.865Z,31
2023-01-12T09:20:18.278Z,28
2023-01-12T09:21:24.908Z,25
2023-01-12T09:22:31.978Z,30
2023-01-12T09:23:39.171Z,25
2023-01-12T09:24:46.276Z,39
2023-01-12T09:25:53.055Z,38
2023-01-12T09:27:00.193Z,38
2023-01-12T09:28:07.189Z,34
2023-01-12T09:29:13.984Z,33
2023-01-12T09:30:21.007Z,37
2023-01-12T09:31:28.221Z,27
2023-01-12T09:32:36.949Z,32
2023-01-12T09:33:42.354Z,32
2023-01-12T09:34:49.109Z,26
2023-01-12T09:35:56.202Z,37
2023-01-12T09:37:08.958Z,31
2023-01-12T09:38:15.945Z,35
2023-01-12T09:39:27.598Z,34
2023-01-12T09:40:30.324Z,37
2023-01-12T09:41:37.512Z,30
2023-01-12T09:42:49.579Z,30
2023-01-12T09:44:01.890Z,25
2023-01-12T09:45:19.311Z,25
2023-01-12T09:46:31.390Z,27
2023-01-12T09:47:43.588Z,25
2023-01-12T09:48:58.503Z,25
2023-01-12T09:50:09.833Z,28
2023-01-12T09:51:12.640Z,27
2023-01-12T09:52:24.832Z,35
2023-01-12T09:53:31.986Z,25
2023-01-12T09:54:38.643Z,25
2023-01-12T09:55:45.972Z,28
2023-01-12T09:56:55.642Z,34
2023-01-12T09:58:05.689Z,25
2023-01-12T09:59:20.463Z,27
2023-01-12T10:00:32.677Z,33
2023-01-12T10:01:39.684Z,36
2023-01-12T10:02:46.555Z,32
2023-01-12T10:03:58.636Z,25
2023-01-12T10:05:05.918Z,29
2023-01-12T10:06:12.969Z,26
2023-01-12T10:07:20.106Z,25
2023-01-12T10:08:27.048Z,30
2023-01-12T10:09:39.302Z,30
2023-01-12T10:10:46.498Z,25
2023-01-12T10:12:01.345Z,39
2023-01-12T10:13:08.478Z,29
2023-01-12T10:14:15.459Z,26
2023-01-12T10:15:32.750Z,44
2023-01-12T10:16:45.045Z,27
2023-01-12T10:17:58.351Z,25
2023-01-12T10:19:08.966Z,36
2023-01-12T10:20:16.368Z,39
2023-01-12T10:21:26.691Z,31
2023-01-12T10:22:33.967Z,31
2023-01-12T10:23:49.187Z,32
2023-01-12T10:24:56.342Z,32
2023-01-12T10:26:03.355Z,31
2023-01-12T10:27:20.935Z,31
2023-01-12T10:28:27.832Z,25
2023-01-12T10:29:34.913Z,32
2023-01-12T10:30:41.614Z,36
2023-01-12T10:31:48.736Z,27
2023-01-12T10:32:55.847Z,25
2023-01-12T10:34:08.061Z,48
2023-01-12T10:35:14.955Z,27
2023-01-12T10:36:22.245Z,26
2023-01-12T10:37:29.344Z,32
2023-01-12T10:38:36.454Z,39
2023-01-12T10:39:43.686Z,31
2023-01-12T10:40:54.437Z,26
2023-01-12T10:42:11.733Z,35
2023-01-12T10:43:21.920Z,32
2023-01-12T10:44:28.963Z,30
2023-01-12T10:45:36.031Z,31
2023-01-12T10:46:43.244Z,41
2023-01-12T10:47:50.310Z,31
2023-01-12T10:48:57.038Z,33
2023-01-12T10:50:12.159Z,43
2023-01-12T10:51:24.323Z,33
2023-01-12T10:52:31.415Z,36
2023-01-12T10:53:38.051Z,33
2023-01-12T10:54:47.828Z,40
2023-01-12T10:55:54.935Z,36
2023-01-12T10:57:02.228Z,35
2023-01-12T10:58:14.280Z,33
2023-01-12T10:59:23.840Z,30
2023-01-12T11:00:33.591Z,34
2023-01-12T11:01:40.864Z,26
2023-01-12T11:02:53.059Z,33
2023-01-12T11:04:00.197Z,30
2023-01-12T11:05:07.326Z,25
2023-01-12T11:06:24.445Z,28
2023-01-12T11:07:31.519Z,39
2023-01-12T11:08:38.751Z,36
2023-01-12T11:09:45.863Z,29
2023-01-12T11:10:53.022Z,25
2023-01-12T11:12:00.100Z,30
2023-01-12T11:13:17.597Z,37
2023-01-12T11:14:34.567Z,38
2023-01-12T11:15:41.820Z,39
2023-01-12T11:16:48.920Z,28
2023-01-12T11:17:56.125Z,28
2023-01-12T11:19:13.351Z,43
2023-01-12T11:20:20.483Z,37
2023-01-12T11:21:30.725Z,37
2023-01-12T11:22:37.647Z,31
2023-01-12T11:23:44.777Z,27
2023-01-12T11:24:57.029Z,25
2023-01-12T11:26:14.476Z,25
2023-01-12T11:27:21.494Z,28
2023-01-12T11:28:33.556Z,30
2023-01-12T11:29:43.274Z,28
2023-01-12T11:30:55.592Z,33
2023-01-12T11:32:07.604Z,33
2023-01-12T11:33:19.861Z,40
2023-01-12T11:34:37.261Z,25
2023-01-12T11:35:44.169Z,29
2023-01-12T11:37:01.398Z,30
2023-01-12T11:38:08.538Z,37
2023-01-12T11:39:15.266Z,25
2023-01-12T11:40:27.909Z,30
2023-01-12T11:41:37.687Z,33
2023-01-12T11:42:44.718Z,28
2023-01-12T11:43:56.929Z,34
2023-01-12T11:45:09.184Z,25
2023-01-12T11:46:26.572Z,25
2023-01-12T11:47:42.052Z,30
2023-01-12T11:48:56.958Z,28
2023-01-12T11:50:14.319Z,34
2023-01-12T11:51:31.649Z,37
2023-01-12T11:52:38.661Z,30
2023-01-12T11:53:45.743Z,30
2023-01-12T11:54:52.486Z,36
2023-01-12T11:55:59.674Z,27
2023-01-12T11:57:14.992Z,30
2023-01-12T11:58:26.990Z,33
2023-01-12T11:59:41.517Z,41
2023-01-12T12:00:54.051Z,33
2023-01-12T12:02:06.279Z,27
2023-01-12T12:03:23.554Z,33
2023-01-12T12:04:40.747Z,28
2023-01-12T12:05:53.079Z,25
2023-01-12T12:07:00.146Z,26
2023-01-12T12:08:10.400Z,27
2023-01-12T12:09:20.043Z,29
2023-01-12T12:10:29.644Z,25
2023-01-12T12:11:41.689Z,27
2023-01-12T12:12:46.506Z,28
2023-01-12T12:13:58.805Z,39
2023-01-12T12:15:16.062Z,34
2023-01-12T12:16:33.315Z,36
2023-01-12T12:17:45.558Z,33
2023-01-12T12:18:52.208Z,29
2023-01-12T12:20:06.938Z,34
2023-01-12T12:21:22.257Z,35
2023-01-12T12:22:34.429Z,34
2023-01-12T12:23:51.765Z,30
2023-01-12T12:25:08.954Z,37
2023-01-12T12:26:20.743Z,32
2023-01-12T12:27:27.832Z,32
2023-01-12T12:28:40.231Z,28
2023-01-12T12:29:52.251Z,27
2023-01-12T12:31:09.760Z,32
2023-01-12T12:32:26.822Z,37
2023-01-12T12:33:41.575Z,37
2023-01-12T12:34:58.957Z,35
2023-01-12T12:36:14.197Z,27
2023-01-12T12:37:26.335Z,32
2023-01-12T12:38:41.068Z,36
2023-01-12T12:39:55.821Z,27
2023-01-12T12:41:08.024Z,27
2023-01-12T12:42:20.574Z,43
2023-01-12T12:43:37.547Z,31
2023-01-12T12:44:49.769Z,30
2023-01-12T12:46:09.634Z,28
2023-01-12T12:47:24.851Z,34
2023-01-12T12:48:37.090Z,28
2023-01-12T12:49:51.862Z,33
2023-01-12T12:50:58.963Z,29
2023-01-12T12:52:09.145Z,25
2023-01-12T12:53:16.274Z,37
2023-01-12T12:54:28.511Z,25
2023-01-12T12:55:35.546Z,44
2023-01-12T12:56:42.243Z,30
2023-01-12T12:57:49.398Z,39
2023-01-12T12:59:01.690Z,27
2023-01-12T13:00:08.783Z,29
2023-01-12T13:01:15.864Z,26
2023-01-12T13:02:26.131Z,32
2023-01-12T13:03:43.300Z,25
2023-01-12T13:04:58.544Z,30
2023-01-12T13:06:05.765Z,35
2023-01-12T13:07:21.076Z,25
2023-01-12T13:08:28.147Z,37
2023-01-12T13:09:35.240Z,28
2023-01-12T13:10:42.368Z,35
2023-01-12T13:11:54.571Z,27
2023-01-12T13:13:01.691Z,25
2023-01-12T13:14:08.864Z,31
2023-01-12T13:15:26.106Z,32
2023-01-12T13:16:35.814Z,25
2023-01-12T13:17:42.905Z,29
2023-01-12T13:18:49.604Z,27
2023-01-12T13:20:00.768Z,28
2023-01-12T13:21:03.896Z,27
2023-01-12T13:22:11.019Z,30
2023-01-12T13:23:28.274Z,30
2023-01-12T13:24:43.076Z,36
2023-01-12T13:25:50.137Z,39
2023-01-12T13:26:57.247Z,35
2023-01-12T13:28:04.390Z,30
2023-01-12T13:29:11.619Z,39
2023-01-12T13:30:26.899Z,36
2023-01-12T13:31:33.895Z,37
2023-01-12T13:32:40.500Z,45
2023-01-12T13:33:47.711Z,33
2023-01-12T13:34:54.862Z,38
2023-01-12T13:36:01.927Z,42
2023-01-12T13:37:09.058Z,36
2023-01-12T13:38:26.472Z,44
2023-01-12T13:39:38.619Z,47
2023-01-12T13:40:55.784Z,47
2023-01-12T13:41:52.905Z,45
2023-01-12T13:43:05.067Z,51
2023-01-12T13:44:23.280Z,49
2023-01-12T13:45:32.989Z,46
2023-01-12T13:46:40.393Z,49
2023-01-12T13:47:49.773Z,48
2023-01-12T13:48:57.046Z,55
2023-01-12T13:50:04.132Z,52
2023-01-12T13:51:11.413Z,51
2023-01-12T13:52:21.811Z,51
2023-01-12T13:53:31.567Z,53
2023-01-12T13:54:38.794Z,49
2023-01-12T13:55:48.836Z,45
2023-01-12T13:57:01.239Z,45
2023-01-12T13:58:08.391Z,52
2023-01-12T13:59:20.624Z,59
2023-01-12T14:00:27.690Z,51
2023-01-12T14:01:34.980Z,58
2023-01-12T14:02:42.055Z,58
2023-01-12T14:03:48.929Z,63
2023-01-12T14:05:01.229Z,63
2023-01-12T14:06:16.109Z,60
2023-01-12T14:07:33.298Z,54
2023-01-12T14:08:51.506Z,58
2023-01-12T14:10:05.879Z,54
2023-01-12T14:11:20.772Z,55
2023-01-12T14:12:32.863Z,53
2023-01-12T14:13:45.150Z,55
2023-01-12T14:14:57.319Z,47
2023-01-12T14:16:19.849Z,52
2023-01-12T14:17:32.039Z,42
2023-01-12T14:18:44.246Z,49
2023-01-12T14:19:51.313Z,45
2023-01-12T14:20:57.993Z,44
2023-01-12T14:22:05.125Z,41
2023-01-12T14:23:14.750Z,46
2023-01-12T14:24:26.919Z,34
2023-01-12T14:25:34.146Z,35
2023-01-12T14:26:41.146Z,40
2023-01-12T14:27:47.886Z,33
2023-01-12T14:28:58.079Z,43
2023-01-12T14:30:05.325Z,39
2023-01-12T14:31:12.838Z,34
2023-01-12T14:32:25.045Z,25
2023-01-12T14:33:32.047Z,31
2023-01-12T14:34:38.835Z,25
2023-01-12T14:35:45.825Z,39
2023-01-12T14:36:52.961Z,38
2023-01-12T14:37:59.784Z,44
2023-01-12T14:39:06.733Z,33
2023-01-12T14:40:13.882Z,39
2023-01-12T14:41:23.646Z,30
2023-01-12T14:42:35.749Z,38
2023-01-12T14:43:47.994Z,34
2023-01-12T14:45:00.194Z,41
2023-01-12T14:46:22.692Z,36
2023-01-12T14:47:34.691Z,36
2023-01-12T14:48:39.929Z,46
2023-01-12T14:49:46.958Z,44
2023-01-12T14:50:54.017Z,41
2023-01-12T14:52:11.409Z,44
2023-01-12T14:53:29.178Z,49
2023-01-12T14:54:38.799Z,42
2023-01-12T14:55:45.909Z,37
2023-01-12T14:56:53.094Z,41
2023-01-12T14:58:05.328Z,50
2023-01-12T14:59:12.459Z,63
2023-01-12T15:00:19.722Z,66
2023-01-12T15:01:27.058Z,43
2023-01-12T15:02:33.838Z,50
2023-01-12T15:03:43.946Z,62
2023-01-12T15:04:47.589Z,62
2023-01-12T15:05:59.902Z,61
2023-01-12T15:07:06.863Z,55
2023-01-12T15:08:14.047Z,64
2023-01-12T15:09:26.233Z,52
2023-01-12T15:10:33.217Z,53
2023-01-12T15:11:40.423Z,59
2023-01-12T15:12:47.202Z,72
2023-01-12T15:13:57.384Z,71
2023-01-12T15:15:04.461Z,64
2023-01-12T15:16:17.039Z,66
2023-01-12T15:17:29.465Z,66
2023-01-12T15:18:41.494Z,76
2023-01-12T15:19:53.766Z,66
2023-01-12T15:21:06.107Z,83
2023-01-12T15:22:18.336Z,66
2023-01-12T15:23:30.389Z,69
2023-01-12T15:24:42.618Z,72
2023-01-12T15:25:55.031Z,66
2023-01-12T15:27:06.571Z,72
2023-01-12T15:28:09.161Z,75
2023-01-12T15:29:16.234Z,72
2023-01-12T15:30:23.414Z,78
2023-01-12T15:31:30.506Z,77
2023-01-12T15:32:46.629Z,77
2023-01-12T15:33:44.896Z,67
2023-01-12T15:34:51.905Z,85
2023-01-12T15:35:59.145Z,88
2023-01-12T15:37:06.201Z,84
2023-01-12T15:38:12.921Z,84
2023-01-12T15:39:19.995Z,91
2023-01-12T15:40:27.044Z,82
2023-01-12T15:41:34.206Z,74
2023-01-12T15:42:46.431Z,91
2023-01-12T15:43:53.558Z,82
2023-01-12T15:45:00.726Z,85
2023-01-12T15:46:08.077Z,65
2023-01-12T15:47:14.963Z,83
2023-01-12T15:48:22.180Z,73
2023-01-12T15:49:29.143Z,72
2023-01-12T15:50:36.391Z,70
2023-01-12T15:51:45.969Z,80
2023-01-12T15:52:53.336Z,69
2023-01-12T15:54:00.334Z,83
2023-01-12T15:55:08.806Z,62
2023-01-12T15:56:19.831Z,81
2023-01-12T15:57:26.653Z,57
2023-01-12T15:58:33.819Z,76
2023-01-12T15:59:41.033Z,71
2023-01-12T16:00:48.347Z,68
2023-01-12T16:01:55.613Z,65
2023-01-12T16:03:02.428Z,75
2023-01-12T16:04:40.721Z,58
2023-01-12T16:05:19.219Z,74